createdAt,value
2022-10-31T00:01:24.066Z,3.30
2022-10-31T00:03:52.260Z,3.23
2022-10-31T00:06:20.348Z,3.67
2022-10-31T00:08:48.989Z,3.63
2022-10-31T00:11:18.478Z,4.30
2022-10-31T00:13:46.679Z,3.03
2022-10-31T00:16:17.709Z,3.77
2022-10-31T00:18:46.001Z,4.40
2022-10-31T00:21:14.129Z,3.70
2022-10-31T00:23:42.278Z,3.53
2022-10-31T00:26:10.397Z,3.50
2022-10-31T00:28:39.980Z,3.90
2022-10-31T00:31:09.896Z,3.00
2022-10-31T00:33:39.478Z,3.70
2022-10-31T00:36:09.467Z,3.27
2022-10-31T00:38:37.619Z,2.70
2022-10-31T00:41:06.049Z,3.60
2022-10-31T00:43:34.244Z,3.30
2022-10-31T00:46:03.781Z,3.03
2022-10-31T00:48:32.266Z,3.07
2022-10-31T00:51:00.589Z,4.07
2022-10-31T00:53:28.742Z,3.43
2022-10-31T00:55:56.867Z,3.40
2022-10-31T00:58:24.971Z,3.80
2022-10-31T01:00:56.358Z,3.60
2022-10-31T01:03:28.270Z,4.10
2022-10-31T01:06:01.512Z,3.80
2022-10-31T01:08:30.166Z,4.30
2022-10-31T01:11:07.604Z,3.90
2022-10-31T01:13:36.216Z,3.23
2022-10-31T01:16:06.305Z,3.63
2022-10-31T01:18:36.572Z,2.80
2022-10-31T01:21:07.050Z,3.50
2022-10-31T01:23:36.059Z,3.07
2022-10-31T01:26:09.863Z,3.40
2022-10-31T01:28:39.745Z,3.50
2022-10-31T01:31:09.910Z,3.40
2022-10-31T01:33:39.741Z,3.13
2022-10-31T01:36:16.789Z,3.37
2022-10-31T01:38:45.060Z,2.90
2022-10-31T01:41:14.704Z,3.57
2022-10-31T01:43:51.824Z,2.73
2022-10-31T01:46:24.656Z,3.23
2022-10-31T01:48:56.281Z,2.97
2022-10-31T01:51:28.105Z,3.70
2022-10-31T01:54:00.353Z,3.60
2022-10-31T01:56:29.008Z,3.80
2022-10-31T01:58:58.551Z,3.20
2022-10-31T02:01:27.260Z,3.03
2022-10-31T02:03:57.816Z,3.43
2022-10-31T02:06:35.685Z,2.70
2022-10-31T02:09:05.979Z,3.10
2022-10-31T02:11:37.120Z,3.40
2022-10-31T02:14:05.862Z,3.20
2022-10-31T02:16:34.050Z,3.43
2022-10-31T02:19:04.639Z,3.37
2022-10-31T02:21:41.756Z,3.80
2022-10-31T02:24:43.028Z,3.83
2022-10-31T02:27:23.639Z,3.67
2022-10-31T02:30:12.151Z,3.37
2022-10-31T02:33:03.117Z,3.20
2022-10-31T02:35:51.559Z,3.53
2022-10-31T02:38:30.780Z,3.23
2022-10-31T02:41:06.438Z,3.50
2022-10-31T02:43:42.406Z,3.50
2022-10-31T02:46:16.556Z,3.90
2022-10-31T02:48:47.773Z,3.63
2022-10-31T02:51:17.536Z,3.30
2022-10-31T02:53:45.673Z,4.00
2022-10-31T02:56:16.114Z,3.33
2022-10-31T02:58:48.970Z,4.40
2022-10-31T03:01:49.668Z,3.50
2022-10-31T03:04:51.194Z,4.03
2022-10-31T03:07:28.096Z,3.43
2022-10-31T03:10:04.603Z,3.70
2022-10-31T03:12:43.124Z,3.43
2022-10-31T03:15:21.622Z,3.37
2022-10-31T03:17:55.895Z,3.30
2022-10-31T03:20:29.919Z,4.00
2022-10-31T03:23:00.537Z,3.60
2022-10-31T03:25:29.315Z,3.30
2022-10-31T03:27:59.114Z,3.40
2022-10-31T03:30:27.641Z,3.47
2022-10-31T03:32:59.089Z,3.73
2022-10-31T03:35:29.711Z,3.70
2022-10-31T03:38:05.406Z,3.90
2022-10-31T03:40:38.652Z,3.90
2022-10-31T03:43:11.087Z,3.80
2022-10-31T03:45:45.229Z,3.80
2022-10-31T03:48:14.883Z,3.53
2022-10-31T03:50:51.981Z,4.00
2022-10-31T03:53:27.032Z,3.60
2022-10-31T03:55:59.882Z,3.40
2022-10-31T03:58:32.350Z,3.00
2022-10-31T04:01:03.707Z,3.53
2022-10-31T04:03:35.201Z,3.10
2022-10-31T04:06:07.713Z,3.67
2022-10-31T04:08:44.139Z,4.23
2022-10-31T04:11:15.711Z,4.00
2022-10-31T04:13:45.229Z,3.40
2022-10-31T04:16:17.123Z,3.60
2022-10-31T04:18:45.792Z,4.50
2022-10-31T04:21:13.921Z,3.40
2022-10-31T04:23:43.478Z,4.13
2022-10-31T04:26:13.493Z,3.50
2022-10-31T04:28:41.635Z,3.53
2022-10-31T04:31:12.669Z,9.10
2022-10-31T04:33:40.906Z,4.40
2022-10-31T04:36:09.434Z,3.60
2022-10-31T04:38:37.583Z,3.70
2022-10-31T04:41:07.336Z,3.90
2022-10-31T04:43:35.454Z,3.17
2022-10-31T04:46:03.913Z,2.93
2022-10-31T04:48:32.217Z,3.10
2022-10-31T04:51:03.418Z,3.40
2022-10-31T04:53:31.644Z,3.60
2022-10-31T04:56:00.942Z,3.37
2022-10-31T04:58:30.793Z,3.30
2022-10-31T05:00:59.225Z,3.50
2022-10-31T05:03:27.518Z,3.40
2022-10-31T05:05:55.610Z,3.57
2022-10-31T05:08:23.830Z,3.77
2022-10-31T05:10:52.963Z,3.30
2022-10-31T05:15:51.871Z,4.20
2022-10-31T05:18:20.009Z,3.30
2022-10-31T05:20:48.144Z,4.43
2022-10-31T05:23:16.657Z,4.73
2022-10-31T05:25:44.867Z,3.67
2022-10-31T05:28:13.011Z,3.90
2022-10-31T05:30:41.167Z,3.80
2022-10-31T05:33:10.681Z,3.10
2022-10-31T05:35:38.795Z,3.13
2022-10-31T05:38:06.928Z,4.10
2022-10-31T05:40:35.020Z,4.97
2022-10-31T05:43:03.533Z,5.10
2022-10-31T05:45:32.081Z,3.63
2022-10-31T05:48:02.330Z,4.77
2022-10-31T05:50:33.470Z,3.77
2022-10-31T05:53:02.946Z,4.43
2022-10-31T05:55:31.926Z,4.13
2022-10-31T05:58:00.447Z,5.70
2022-10-31T06:00:29.694Z,3.50
2022-10-31T06:03:02.074Z,3.77
2022-10-31T06:05:32.629Z,3.90
2022-10-31T06:08:01.555Z,3.77
2022-10-31T06:10:30.258Z,3.47
2022-10-31T06:12:58.614Z,3.20
2022-10-31T06:15:26.843Z,3.37
2022-10-31T06:18:03.465Z,3.47
2022-10-31T06:20:34.045Z,4.63
2022-10-31T06:23:03.160Z,3.97
2022-10-31T06:25:31.617Z,3.40
2022-10-31T06:27:59.728Z,4.00
2022-10-31T06:30:28.172Z,3.73
2022-10-31T06:32:56.334Z,3.50
2022-10-31T06:35:24.627Z,4.53
2022-10-31T06:37:57.909Z,3.97
2022-10-31T06:40:26.240Z,3.90
2022-10-31T06:43:01.265Z,4.50
2022-10-31T06:45:29.736Z,3.77
2022-10-31T06:50:47.054Z,4.20
2022-10-31T06:53:16.888Z,3.60
2022-10-31T06:55:45.415Z,3.83
2022-10-31T06:58:13.841Z,3.17
2022-10-31T07:00:42.022Z,3.77
2022-10-31T07:03:13.573Z,3.80
2022-10-31T07:05:47.486Z,3.77
2022-10-31T07:08:17.165Z,6.90
2022-10-31T07:10:45.633Z,6.80
2022-10-31T07:13:15.535Z,5.10
2022-10-31T07:15:44.971Z,4.23
2022-10-31T07:18:14.429Z,4.13
2022-10-31T07:20:42.524Z,5.00
2022-10-31T07:23:11.853Z,3.80
2022-10-31T07:25:41.503Z,3.40
2022-10-31T07:28:10.152Z,3.80
2022-10-31T07:30:40.946Z,4.40
2022-10-31T07:33:09.131Z,4.57
2022-10-31T07:35:37.347Z,3.87
2022-10-31T07:38:13.361Z,4.40
2022-10-31T07:40:43.771Z,4.50
2022-10-31T07:43:14.524Z,6.53
2022-10-31T07:45:42.927Z,7.60
2022-10-31T07:48:11.135Z,10.00
2022-10-31T07:50:40.292Z,8.70
2022-10-31T07:53:10.056Z,12.80
2022-10-31T07:55:38.840Z,12.60
2022-10-31T07:58:09.937Z,11.60
2022-10-31T08:00:41.015Z,9.00
2022-10-31T08:03:10.903Z,7.53
2022-10-31T08:05:39.498Z,5.60
2022-10-31T08:08:12.122Z,4.83
2022-10-31T08:10:43.594Z,4.00
2022-10-31T08:13:15.165Z,3.80
2022-10-31T08:15:43.520Z,3.63
2022-10-31T08:18:14.852Z,3.30
2022-10-31T08:20:43.527Z,3.53
2022-10-31T08:23:13.091Z,3.83
2022-10-31T08:25:42.834Z,3.80
2022-10-31T08:28:13.469Z,3.70
2022-10-31T08:30:42.466Z,4.63
2022-10-31T08:33:12.996Z,4.20
2022-10-31T08:35:41.623Z,4.10
2022-10-31T08:38:11.934Z,3.90
2022-10-31T08:40:40.761Z,4.00
2022-10-31T08:43:13.535Z,9.80
2022-10-31T08:45:42.089Z,4.60
2022-10-31T08:48:13.296Z,5.20
2022-10-31T08:50:42.125Z,5.13
2022-10-31T08:53:14.084Z,4.30
2022-10-31T08:55:43.170Z,4.20
2022-10-31T08:58:14.882Z,4.60
2022-10-31T09:00:43.400Z,4.10
2022-10-31T09:03:14.549Z,4.43
2022-10-31T09:05:42.895Z,3.70
2022-10-31T09:08:16.007Z,4.00
2022-10-31T09:10:45.868Z,3.77
2022-10-31T09:13:17.447Z,4.03
2022-10-31T09:15:46.899Z,4.97
2022-10-31T09:18:19.104Z,3.87
2022-10-31T09:20:48.575Z,4.33
2022-10-31T09:23:18.554Z,3.20
2022-10-31T09:25:50.485Z,4.13
2022-10-31T09:28:23.840Z,4.93
2022-10-31T09:30:53.624Z,6.43
2022-10-31T09:33:22.465Z,5.73
2022-10-31T09:35:51.028Z,5.70
2022-10-31T09:38:21.233Z,5.50
2022-10-31T09:40:54.389Z,5.20
2022-10-31T09:43:32.116Z,5.10
2022-10-31T09:46:06.473Z,5.87
2022-10-31T09:48:52.691Z,6.73
2022-10-31T09:51:25.486Z,5.73
2022-10-31T09:54:00.431Z,6.83
2022-10-31T09:56:30.212Z,5.83
2022-10-31T09:59:01.878Z,5.73
2022-10-31T10:01:46.869Z,4.80
2022-10-31T10:04:39.379Z,4.13
2022-10-31T10:07:16.342Z,5.00
2022-10-31T10:09:47.571Z,3.60
2022-10-31T10:12:20.758Z,3.70
2022-10-31T10:15:04.364Z,4.43
2022-10-31T10:17:40.123Z,4.53
2022-10-31T10:20:25.472Z,4.50
2022-10-31T10:23:01.281Z,4.30
2022-10-31T10:25:35.606Z,3.83
2022-10-31T10:28:14.726Z,5.23
2022-10-31T10:30:47.674Z,5.27
2022-10-31T10:33:20.329Z,4.20
2022-10-31T10:35:52.589Z,4.73
2022-10-31T10:38:27.654Z,4.73
2022-10-31T10:40:56.149Z,5.60
2022-10-31T10:43:27.748Z,6.00
2022-10-31T10:46:24.718Z,5.47
2022-10-31T10:49:01.039Z,6.60
2022-10-31T10:51:58.151Z,6.13
2022-10-31T10:54:56.808Z,7.00
2022-10-31T10:57:34.688Z,7.67
2022-10-31T11:00:13.379Z,7.13
2022-10-31T11:02:46.449Z,6.87
2022-10-31T11:05:25.338Z,6.33
2022-10-31T11:07:53.536Z,6.60
2022-10-31T11:10:21.999Z,7.00
2022-10-31T11:13:04.283Z,7.07
2022-10-31T11:15:35.872Z,6.80
2022-10-31T11:18:06.144Z,6.00
2022-10-31T11:20:36.868Z,7.87
2022-10-31T11:23:16.858Z,7.40
2022-10-31T11:25:52.615Z,7.33
2022-10-31T11:28:20.793Z,7.43
2022-10-31T11:30:51.846Z,8.17
2022-10-31T11:33:26.713Z,7.10
2022-10-31T11:35:58.031Z,6.20
2022-10-31T11:38:35.180Z,6.30
2022-10-31T11:41:11.532Z,5.80
2022-10-31T11:43:40.894Z,5.57
2022-10-31T11:46:13.003Z,6.90
2022-10-31T11:48:48.701Z,6.90
2022-10-31T11:51:23.241Z,6.17
2022-10-31T11:53:58.209Z,6.93
2022-10-31T11:56:30.198Z,6.33
2022-10-31T11:58:59.056Z,7.30
2022-10-31T12:01:29.512Z,6.10
2022-10-31T12:04:08.346Z,5.90
2022-10-31T12:06:38.261Z,5.53
2022-10-31T12:09:23.250Z,5.13
2022-10-31T12:12:08.745Z,5.30
2022-10-31T12:14:44.133Z,4.97
2022-10-31T12:17:18.000Z,4.20
2022-10-31T12:19:56.354Z,5.70
2022-10-31T12:22:31.846Z,6.17
2022-10-31T12:25:21.715Z,5.73
2022-10-31T12:28:08.876Z,5.97
2022-10-31T12:30:49.332Z,4.80
2022-10-31T12:33:36.634Z,5.63
2022-10-31T12:36:23.364Z,5.73
2022-10-31T12:39:15.167Z,14.37
2022-10-31T12:41:49.604Z,5.33
2022-10-31T12:44:36.803Z,4.30
2022-10-31T12:47:19.432Z,4.30
2022-10-31T12:49:56.486Z,5.20
2022-10-31T12:52:43.355Z,4.77
2022-10-31T12:55:39.203Z,4.20
2022-10-31T12:58:12.884Z,4.90
2022-10-31T13:00:48.469Z,4.50
2022-10-31T13:03:27.349Z,3.47
2022-10-31T13:06:00.244Z,4.97
2022-10-31T13:08:38.538Z,4.00
2022-10-31T13:11:11.950Z,3.30
2022-10-31T13:13:43.572Z,3.77
2022-10-31T13:16:17.220Z,3.90
2022-10-31T13:18:49.976Z,3.57
2022-10-31T13:21:23.465Z,3.77
2022-10-31T13:23:53.946Z,3.73
2022-10-31T13:26:27.705Z,3.77
2022-10-31T13:29:02.021Z,3.43
2022-10-31T13:31:30.382Z,3.70
2022-10-31T13:34:01.604Z,3.93
2022-10-31T13:36:35.894Z,3.73
2022-10-31T13:39:19.438Z,4.83
2022-10-31T13:41:50.800Z,5.03
2022-10-31T13:44:24.981Z,5.90
2022-10-31T13:46:53.789Z,6.50
2022-10-31T13:49:41.557Z,5.90
2022-10-31T13:52:26.546Z,6.53
2022-10-31T13:54:58.961Z,6.70
2022-10-31T13:57:34.710Z,6.20
2022-10-31T14:00:05.809Z,7.20
2022-10-31T14:02:37.172Z,5.80
2022-10-31T14:05:11.181Z,5.43
2022-10-31T14:07:46.162Z,6.00
2022-10-31T14:10:27.774Z,7.67
2022-10-31T14:13:04.698Z,5.83
2022-10-31T14:15:33.635Z,6.00
2022-10-31T14:18:04.263Z,5.60
2022-10-31T14:20:40.185Z,5.10
2022-10-31T14:23:34.854Z,6.27
2022-10-31T14:26:32.004Z,5.70
2022-10-31T14:29:02.167Z,5.63
2022-10-31T14:31:35.904Z,5.40
2022-10-31T14:34:08.600Z,5.90
2022-10-31T14:36:52.411Z,5.63
2022-10-31T14:39:26.422Z,5.87
2022-10-31T14:42:16.475Z,6.10
2022-10-31T14:45:03.111Z,5.90
2022-10-31T14:47:41.498Z,5.80
2022-10-31T14:50:25.260Z,5.60
2022-10-31T14:52:57.055Z,5.20
2022-10-31T14:55:26.688Z,5.50
2022-10-31T14:58:00.196Z,6.40
2022-10-31T15:00:31.298Z,5.80
2022-10-31T15:03:11.814Z,4.73
2022-10-31T15:05:45.101Z,6.07
2022-10-31T15:08:28.042Z,5.43
2022-10-31T15:10:56.160Z,5.80
2022-10-31T15:13:25.774Z,6.53
2022-10-31T15:15:56.870Z,5.70
2022-10-31T15:18:27.842Z,9.60
2022-10-31T15:20:58.079Z,5.93
2022-10-31T15:23:29.076Z,6.70
2022-10-31T15:26:04.131Z,5.93
2022-10-31T15:28:33.909Z,6.97
2022-10-31T15:31:03.516Z,8.47
2022-10-31T15:33:38.237Z,7.47
2022-10-31T15:36:08.732Z,8.10
2022-10-31T15:38:36.995Z,10.30
2022-10-31T15:41:08.345Z,9.00
2022-10-31T15:43:41.000Z,8.40
2022-10-31T15:46:11.595Z,8.50
2022-10-31T15:48:41.624Z,8.90
2022-10-31T15:51:09.842Z,8.40
2022-10-31T15:53:43.898Z,8.93
2022-10-31T15:56:21.134Z,9.13
2022-10-31T15:58:54.329Z,8.50
2022-10-31T16:01:25.601Z,10.03
2022-10-31T16:04:06.095Z,9.57
2022-10-31T16:06:36.138Z,9.27
2022-10-31T16:09:05.434Z,8.83
2022-10-31T16:11:37.629Z,9.40
2022-10-31T16:14:09.685Z,9.03
2022-10-31T16:16:44.266Z,9.13
2022-10-31T16:19:20.457Z,9.47
2022-10-31T16:21:51.248Z,9.47
2022-10-31T16:24:24.653Z,9.20
2022-10-31T16:26:55.012Z,8.97
2022-10-31T16:29:31.433Z,7.97
2022-10-31T16:31:59.552Z,8.53
2022-10-31T16:34:27.746Z,9.00
2022-10-31T16:36:56.005Z,9.33
2022-10-31T16:39:24.292Z,9.17
2022-10-31T16:41:54.733Z,8.77
2022-10-31T16:44:27.378Z,15.07
2022-10-31T16:47:11.480Z,12.87
2022-10-31T16:49:39.706Z,11.37
2022-10-31T16:52:07.943Z,9.43
2022-10-31T16:54:36.332Z,9.70
2022-10-31T16:57:06.807Z,9.03
2022-10-31T16:59:35.987Z,9.93
2022-10-31T17:02:06.458Z,10.13
2022-10-31T17:04:37.673Z,11.87
2022-10-31T17:07:05.838Z,10.60
2022-10-31T17:09:33.952Z,10.93
2022-10-31T17:12:02.184Z,12.30
2022-10-31T17:14:30.579Z,12.37
2022-10-31T17:16:58.738Z,10.37
2022-10-31T17:19:28.241Z,11.40
2022-10-31T17:21:56.374Z,10.83
2022-10-31T17:24:24.512Z,11.63
2022-10-31T17:26:52.663Z,23.60
2022-10-31T17:29:20.887Z,13.00
2022-10-31T17:31:49.393Z,12.17
2022-10-31T17:34:19.168Z,10.80
2022-10-31T17:36:53.157Z,10.37
2022-10-31T17:39:21.459Z,15.03
2022-10-31T17:41:52.407Z,11.63
2022-10-31T17:44:21.134Z,10.37
2022-10-31T17:46:49.237Z,10.13
2022-10-31T17:49:17.376Z,12.57
2022-10-31T17:51:45.540Z,16.90
2022-10-31T17:54:18.479Z,16.57
2022-10-31T17:56:46.588Z,12.60
2022-10-31T17:59:14.764Z,15.53
2022-10-31T18:01:43.021Z,15.07
2022-10-31T18:04:11.297Z,17.33
2022-10-31T18:06:39.432Z,16.53
2022-10-31T18:09:08.047Z,11.30
2022-10-31T18:11:37.647Z,10.53
2022-10-31T18:14:05.866Z,14.60
2022-10-31T18:16:34.143Z,13.63
2022-10-31T18:19:02.265Z,9.40
2022-10-31T18:21:30.771Z,10.53
2022-10-31T18:24:00.456Z,28.17
2022-10-31T18:26:29.578Z,16.57
2022-10-31T18:28:59.444Z,13.37
2022-10-31T18:31:27.767Z,13.70
2022-10-31T18:33:56.802Z,10.80
2022-10-31T18:36:25.739Z,9.20
2022-10-31T18:38:54.016Z,9.97
2022-10-31T18:41:22.217Z,10.50
2022-10-31T18:43:50.368Z,10.90
2022-10-31T18:46:19.841Z,10.20
2022-10-31T18:48:48.007Z,12.53
2022-10-31T18:51:18.522Z,10.50
2022-10-31T18:53:52.918Z,8.43
2022-10-31T18:56:21.650Z,9.63
2022-10-31T18:58:50.273Z,9.10
2022-10-31T19:01:21.507Z,8.90
2022-10-31T19:03:55.220Z,8.00
2022-10-31T19:06:23.517Z,9.47
2022-10-31T19:08:51.730Z,9.20
2022-10-31T19:11:19.811Z,9.10
2022-10-31T19:13:47.995Z,8.83
2022-10-31T19:16:17.898Z,7.87
2022-10-31T19:18:47.406Z,8.10
2022-10-31T19:21:17.018Z,7.67
2022-10-31T19:23:46.187Z,7.83
2022-10-31T19:26:14.617Z,8.60
2022-10-31T19:28:43.405Z,11.23
2022-10-31T19:31:11.863Z,8.10
2022-10-31T19:33:40.201Z,7.87
2022-10-31T19:36:11.951Z,8.30
2022-10-31T19:38:41.661Z,7.97
2022-10-31T19:41:12.602Z,8.10
2022-10-31T19:43:40.899Z,8.67
2022-10-31T19:46:17.450Z,7.23
2022-10-31T19:48:57.264Z,7.20
2022-10-31T19:51:26.788Z,7.70
2022-10-31T19:53:55.861Z,8.63
2022-10-31T19:56:25.358Z,8.40
2022-10-31T19:58:53.831Z,8.13
2022-10-31T20:01:23.516Z,8.33
2022-10-31T20:03:52.120Z,7.30
2022-10-31T20:06:26.882Z,6.73
2022-10-31T20:08:57.197Z,5.87
2022-10-31T20:11:27.126Z,6.10
2022-10-31T20:13:56.301Z,6.80
2022-10-31T20:16:24.701Z,7.53
2022-10-31T20:18:52.986Z,7.73
2022-10-31T20:21:22.868Z,7.73
2022-10-31T20:23:55.585Z,6.10
2022-10-31T20:26:25.137Z,6.87
2022-10-31T20:28:53.312Z,6.47
2022-10-31T20:31:23.227Z,7.70
2022-10-31T20:33:52.550Z,7.30
2022-10-31T20:36:21.195Z,7.73
2022-10-31T20:38:49.470Z,6.70
2022-10-31T20:41:18.321Z,8.93
2022-10-31T20:43:48.205Z,8.40
2022-10-31T20:46:18.567Z,10.27
2022-10-31T20:48:47.414Z,8.33
2022-10-31T20:51:19.491Z,9.67
2022-10-31T20:53:47.715Z,9.63
2022-10-31T20:56:18.667Z,8.47
2022-10-31T20:58:48.815Z,8.60
2022-10-31T21:01:18.707Z,8.07
2022-10-31T21:03:47.259Z,8.83
2022-10-31T21:06:16.619Z,7.83
2022-10-31T21:08:45.392Z,7.10
2022-10-31T21:11:16.168Z,6.90
2022-10-31T21:13:45.933Z,6.30
2022-10-31T21:16:17.159Z,7.50
2022-10-31T21:18:46.562Z,6.57
2022-10-31T21:21:17.735Z,5.67
2022-10-31T21:23:45.891Z,6.40
2022-10-31T21:26:16.881Z,7.80
2022-10-31T21:28:45.097Z,7.23
2022-10-31T21:31:16.588Z,6.67
2022-10-31T21:33:45.893Z,7.60
2022-10-31T21:36:14.513Z,7.73
2022-10-31T21:38:43.413Z,15.67
2022-10-31T21:41:13.495Z,8.33
2022-10-31T21:43:43.819Z,7.00
2022-10-31T21:46:15.771Z,6.80
2022-10-31T21:48:45.986Z,8.13
2022-10-31T21:51:16.388Z,6.80
2022-10-31T21:54:02.028Z,7.97
2022-10-31T21:56:30.780Z,6.63
2022-10-31T21:58:59.295Z,6.60
2022-10-31T22:01:29.390Z,7.33
2022-10-31T22:03:59.964Z,6.50
2022-10-31T22:06:30.156Z,5.80
2022-10-31T22:09:00.824Z,6.33
2022-10-31T22:11:29.299Z,6.37
2022-10-31T22:13:59.777Z,6.27
2022-10-31T22:16:30.055Z,7.37
2022-10-31T22:19:04.991Z,8.70
2022-10-31T22:21:37.736Z,6.10
2022-10-31T22:24:07.707Z,5.47
2022-10-31T22:26:36.689Z,7.23
2022-10-31T22:29:06.399Z,7.80
2022-10-31T22:31:35.471Z,6.40
2022-10-31T22:34:05.030Z,5.17
2022-10-31T22:36:33.480Z,5.27
2022-10-31T22:39:01.909Z,5.40
2022-10-31T22:41:33.096Z,5.73
2022-10-31T22:44:02.938Z,5.40
2022-10-31T22:46:32.980Z,6.60
2022-10-31T22:49:02.197Z,6.00
2022-10-31T22:51:33.896Z,5.63
2022-10-31T22:54:02.261Z,5.70
2022-10-31T22:56:33.174Z,5.93
2022-10-31T22:59:02.053Z,5.57
2022-10-31T23:01:33.109Z,5.90
2022-10-31T23:04:02.086Z,4.87
2022-10-31T23:06:33.794Z,5.33
2022-10-31T23:09:03.381Z,5.20
2022-10-31T23:11:34.981Z,6.03
2022-10-31T23:14:10.251Z,5.27
2022-10-31T23:16:41.896Z,5.40
2022-10-31T23:19:10.908Z,4.77
2022-10-31T23:21:56.147Z,4.93
2022-10-31T23:24:27.288Z,4.97
2022-10-31T23:27:11.091Z,5.00
2022-10-31T23:29:46.347Z,4.60
2022-10-31T23:32:18.218Z,5.27
2022-10-31T23:34:47.356Z,4.97
2022-10-31T23:37:17.938Z,4.43
2022-10-31T23:39:46.148Z,5.20
2022-10-31T23:42:15.578Z,4.10
2022-10-31T23:44:44.042Z,5.20
2022-10-31T23:47:13.016Z,5.10
2022-10-31T23:49:41.264Z,5.07
2022-10-31T23:52:09.563Z,5.40
2022-10-31T23:54:39.436Z,6.33
2022-10-31T23:57:07.912Z,6.27
2022-10-31T23:59:36.829Z,4.73
